sensor_id;sensor_type;location;lat;lon;timestamp;temperature;humidity
18309;DHT22;9280;50.276;18.650;2022-09-09T05:27:50;14.30;99.90
18309;DHT22;9280;50.276;18.650;2022-09-09T06:12:27;15.20;99.90
18309;DHT22;9280;50.276;18.650;2022-09-09T06:32:05;15.80;99.90
18309;DHT22;9280;50.276;18.650;2022-09-09T06:51:44;16.40;99.90
18309;DHT22;9280;50.276;18.650;2022-09-09T06:54:32;16.50;99.90
18309;DHT22;9280;50.276;18.650;2022-09-09T06:57:23;16.70;99.90
18309;DHT22;9280;50.276;18.650;2022-09-09T07:00:11;16.70;99.90
18309;DHT22;9280;50.276;18.650;2022-09-09T07:02:58;16.90;99.90
18309;DHT22;9280;50.276;18.650;2022-09-09T07:05:55;17.00;99.90
18309;DHT22;9280;50.276;18.650;2022-09-09T07:08:43;17.10;99.90
18309;DHT22;9280;50.276;18.650;2022-09-09T07:11:31;17.10;99.90
18309;DHT22;9280;50.276;18.650;2022-09-09T07:14:18;17.20;99.90
18309;DHT22;9280;50.276;18.650;2022-09-09T07:17:07;17.30;99.90
18309;DHT22;9280;50.276;18.650;2022-09-09T07:19:56;17.40;99.90
18309;DHT22;9280;50.276;18.650;2022-09-09T07:22:44;17.50;99.90
18309;DHT22;9280;50.276;18.650;2022-09-09T07:25:30;17.60;99.90
18309;DHT22;9280;50.276;18.650;2022-09-09T07:28:17;17.80;99.90
18309;DHT22;9280;50.276;18.650;2022-09-09T07:31:03;17.90;99.90
18309;DHT22;9280;50.276;18.650;2022-09-09T07:33:50;18.00;99.90
18309;DHT22;9280;50.276;18.650;2022-09-09T07:36:38;18.20;99.90
18309;DHT22;9280;50.276;18.650;2022-09-09T07:39:28;18.20;99.90
18309;DHT22;9280;50.276;18.650;2022-09-09T07:42:15;18.20;99.90
18309;DHT22;9280;50.276;18.650;2022-09-09T07:45:01;18.50;99.90
18309;DHT22;9280;50.276;18.650;2022-09-09T07:47:47;18.60;99.90
18309;DHT22;9280;50.276;18.650;2022-09-09T07:50:35;18.80;99.90
18309;DHT22;9280;50.276;18.650;2022-09-09T07:53:20;18.90;99.90
18309;DHT22;9280;50.276;18.650;2022-09-09T07:56:10;19.20;99.90
18309;DHT22;9280;50.276;18.650;2022-09-09T07:58:59;19.40;99.90
18309;DHT22;9280;50.276;18.650;2022-09-09T08:01:48;19.60;99.90
18309;DHT22;9280;50.276;18.650;2022-09-09T08:04:37;19.80;99.90
18309;DHT22;9280;50.276;18.650;2022-09-09T08:07:24;19.90;99.90
18309;DHT22;9280;50.276;18.650;2022-09-09T08:10:12;20.10;99.90
18309;DHT22;9280;50.276;18.650;2022-09-09T08:13:04;20.20;99.90
18309;DHT22;9280;50.276;18.650;2022-09-09T08:15:51;20.30;99.90
18309;DHT22;9280;50.276;18.650;2022-09-09T08:18:38;20.50;99.90
18309;DHT22;9280;50.276;18.650;2022-09-09T08:21:26;20.70;99.90
18309;DHT22;9280;50.276;18.650;2022-09-09T08:24:15;21.00;99.90
18309;DHT22;9280;50.276;18.650;2022-09-09T08:27:06;21.20;99.90
18309;DHT22;9280;50.276;18.650;2022-09-09T08:29:53;21.10;99.90
18309;DHT22;9280;50.276;18.650;2022-09-09T08:32:41;21.20;99.90
18309;DHT22;9280;50.276;18.650;2022-09-09T08:35:28;21.40;99.90
18309;DHT22;9280;50.276;18.650;2022-09-09T08:38:17;21.60;99.90
18309;DHT22;9280;50.276;18.650;2022-09-09T08:44:17;21.90;99.90
18309;DHT22;9280;50.276;18.650;2022-09-09T08:47:14;21.80;99.90
18309;DHT22;9280;50.276;18.650;2022-09-09T08:50:13;21.80;99.90
18309;DHT22;9280;50.276;18.650;2022-09-09T08:53:05;21.60;99.90
18309;DHT22;9280;50.276;18.650;2022-09-09T08:55:57;21.80;99.90
18309;DHT22;9280;50.276;18.650;2022-09-09T08:59:01;21.90;99.90
18309;DHT22;9280;50.276;18.650;2022-09-09T09:02:02;21.90;99.90
18309;DHT22;9280;50.276;18.650;2022-09-09T09:05:14;21.90;99.90
18309;DHT22;9280;50.276;18.650;2022-09-09T09:08:11;22.10;99.90
18309;DHT22;9280;50.276;18.650;2022-09-09T09:11:00;22.10;99.90
18309;DHT22;9280;50.276;18.650;2022-09-09T09:13:50;22.20;99.90
18309;DHT22;9280;50.276;18.650;2022-09-09T09:16:45;22.50;99.90
18309;DHT22;9280;50.276;18.650;2022-09-09T09:19:34;22.60;99.90
18309;DHT22;9280;50.276;18.650;2022-09-09T09:22:29;22.80;99.90
18309;DHT22;9280;50.276;18.650;2022-09-09T09:25:23;22.90;99.90
18309;DHT22;9280;50.276;18.650;2022-09-09T09:28:15;22.90;99.90
18309;DHT22;9280;50.276;18.650;2022-09-09T09:31:05;23.10;99.90
18309;DHT22;9280;50.276;18.650;2022-09-09T09:33:55;23.20;99.90
18309;DHT22;9280;50.276;18.650;2022-09-09T09:36:53;23.20;99.90
18309;DHT22;9280;50.276;18.650;2022-09-09T09:39:41;23.30;99.90
18309;DHT22;9280;50.276;18.650;2022-09-09T09:42:28;23.40;99.90
18309;DHT22;9280;50.276;18.650;2022-09-09T09:45:18;23.30;99.90
18309;DHT22;9280;50.276;18.650;2022-09-09T09:48:10;23.50;99.90
18309;DHT22;9280;50.276;18.650;2022-09-09T09:51:00;23.90;99.90
18309;DHT22;9280;50.276;18.650;2022-09-09T09:53:47;24.00;99.90
18309;DHT22;9280;50.276;18.650;2022-09-09T09:56:36;23.80;99.70
18309;DHT22;9280;50.276;18.650;2022-09-09T09:59:33;23.70;99.30
18309;DHT22;9280;50.276;18.650;2022-09-09T10:02:22;24.00;98.80
18309;DHT22;9280;50.276;18.650;2022-09-09T10:05:17;24.10;97.50
18309;DHT22;9280;50.276;18.650;2022-09-09T10:08:12;24.40;96.10
18309;DHT22;9280;50.276;18.650;2022-09-09T10:11:07;24.20;95.70
18309;DHT22;9280;50.276;18.650;2022-09-09T10:14:08;24.10;95.90
18309;DHT22;9280;50.276;18.650;2022-09-09T10:17:07;24.20;95.10
18309;DHT22;9280;50.276;18.650;2022-09-09T10:20:10;24.60;94.40
18309;DHT22;9280;50.276;18.650;2022-09-09T10:23:09;25.00;93.20
18309;DHT22;9280;50.276;18.650;2022-09-09T10:26:08;25.00;91.20
18309;DHT22;9280;50.276;18.650;2022-09-09T10:29:13;25.00;91.20
18309;DHT22;9280;50.276;18.650;2022-09-09T10:32:10;24.80;92.40
18309;DHT22;9280;50.276;18.650;2022-09-09T10:35:03;24.50;92.10
18309;DHT22;9280;50.276;18.650;2022-09-09T10:38:13;24.40;92.60
18309;DHT22;9280;50.276;18.650;2022-09-09T10:41:09;23.90;92.20
18309;DHT22;9280;50.276;18.650;2022-09-09T10:47:31;24.40;92.50
18309;DHT22;9280;50.276;18.650;2022-09-09T10:50:40;24.40;92.10
18309;DHT22;9280;50.276;18.650;2022-09-09T10:53:36;24.30;92.10
18309;DHT22;9280;50.276;18.650;2022-09-09T10:56:23;24.70;90.40
18309;DHT22;9280;50.276;18.650;2022-09-09T10:59:13;24.80;90.70
18309;DHT22;9280;50.276;18.650;2022-09-09T11:02:05;24.10;90.50
18309;DHT22;9280;50.276;18.650;2022-09-09T11:05:04;24.00;92.10
18309;DHT22;9280;50.276;18.650;2022-09-09T11:07:54;24.00;91.00
18309;DHT22;9280;50.276;18.650;2022-09-09T11:10:44;24.30;91.10
18309;DHT22;9280;50.276;18.650;2022-09-09T11:13:38;24.30;88.90
18309;DHT22;9280;50.276;18.650;2022-09-09T11:16:29;24.20;89.20
18309;DHT22;9280;50.276;18.650;2022-09-09T11:19:21;24.80;87.60
18309;DHT22;9280;50.276;18.650;2022-09-09T11:22:17;25.10;83.60
18309;DHT22;9280;50.276;18.650;2022-09-09T11:25:10;24.70;79.60
18309;DHT22;9280;50.276;18.650;2022-09-09T11:28:18;24.50;79.30
18309;DHT22;9280;50.276;18.650;2022-09-09T11:31:21;24.80;79.90
18309;DHT22;9280;50.276;18.650;2022-09-09T11:34:34;24.90;81.60
18309;DHT22;9280;50.276;18.650;2022-09-09T11:37:47;24.90;78.90
18309;DHT22;9280;50.276;18.650;2022-09-09T11:40:40;24.80;78.20
18309;DHT22;9280;50.276;18.650;2022-09-09T11:43:29;25.00;79.20
18309;DHT22;9280;50.276;18.650;2022-09-09T11:46:18;25.50;77.80
18309;DHT22;9280;50.276;18.650;2022-09-09T11:49:21;25.60;77.90
18309;DHT22;9280;50.276;18.650;2022-09-09T11:52:12;26.00;76.60
18309;DHT22;9280;50.276;18.650;2022-09-09T11:55:08;26.10;73.90
18309;DHT22;9280;50.276;18.650;2022-09-09T11:57:58;25.50;73.10
18309;DHT22;9280;50.276;18.650;2022-09-09T12:00:47;26.00;74.00
18309;DHT22;9280;50.276;18.650;2022-09-09T12:03:39;26.60;71.10
18309;DHT22;9280;50.276;18.650;2022-09-09T12:06:29;26.70;67.70
18309;DHT22;9280;50.276;18.650;2022-09-09T12:09:25;26.30;75.70
18309;DHT22;9280;50.276;18.650;2022-09-09T12:12:29;26.70;68.40
18309;DHT22;9280;50.276;18.650;2022-09-09T12:15:23;26.80;66.40
18309;DHT22;9280;50.276;18.650;2022-09-09T12:18:22;26.50;65.40
18309;DHT22;9280;50.276;18.650;2022-09-09T12:21:19;26.60;65.30
18309;DHT22;9280;50.276;18.650;2022-09-09T12:24:11;26.80;65.10
18309;DHT22;9280;50.276;18.650;2022-09-09T12:27:04;27.10;64.60
18309;DHT22;9280;50.276;18.650;2022-09-09T12:29:58;27.50;61.60
18309;DHT22;9280;50.276;18.650;2022-09-09T12:32:58;28.20;60.30
18309;DHT22;9280;50.276;18.650;2022-09-09T12:35:48;28.80;58.00
18309;DHT22;9280;50.276;18.650;2022-09-09T12:38:40;29.70;53.90
18309;DHT22;9280;50.276;18.650;2022-09-09T12:41:28;31.20;49.50
18309;DHT22;9280;50.276;18.650;2022-09-09T12:44:16;34.50;42.60
18309;DHT22;9280;50.276;18.650;2022-09-09T12:47:04;37.00;37.10
18309;DHT22;9280;50.276;18.650;2022-09-09T12:49:50;38.70;30.40
18309;DHT22;9280;50.276;18.650;2022-09-09T12:52:37;40.20;27.90
18309;DHT22;9280;50.276;18.650;2022-09-09T12:55:27;42.80;24.40
18309;DHT22;9280;50.276;18.650;2022-09-09T12:58:17;45.40;21.30
18309;DHT22;9280;50.276;18.650;2022-09-09T13:01:05;48.60;18.40
18309;DHT22;9280;50.276;18.650;2022-09-09T13:03:54;49.70;16.60
18309;DHT22;9280;50.276;18.650;2022-09-09T13:06:41;48.70;16.20
18309;DHT22;9280;50.276;18.650;2022-09-09T13:09:27;47.80;16.00
18309;DHT22;9280;50.276;18.650;2022-09-09T13:12:15;44.90;18.60
18309;DHT22;9280;50.276;18.650;2022-09-09T13:15:02;44.60;18.60
18309;DHT22;9280;50.276;18.650;2022-09-09T13:17:54;44.10;18.30
18309;DHT22;9280;50.276;18.650;2022-09-09T13:20:47;44.40;18.20
18309;DHT22;9280;50.276;18.650;2022-09-09T13:23:35;42.80;18.70
18309;DHT22;9280;50.276;18.650;2022-09-09T13:26:24;41.00;19.30
18309;DHT22;9280;50.276;18.650;2022-09-09T13:29:16;39.10;21.00
18309;DHT22;9280;50.276;18.650;2022-09-09T13:32:12;36.60;23.50
18309;DHT22;9280;50.276;18.650;2022-09-09T13:35:01;34.70;25.20
18309;DHT22;9280;50.276;18.650;2022-09-09T13:37:49;33.50;26.50
18309;DHT22;9280;50.276;18.650;2022-09-09T13:40:35;32.90;27.40
18309;DHT22;9280;50.276;18.650;2022-09-09T13:43:23;32.10;28.50
18309;DHT22;9280;50.276;18.650;2022-09-09T13:46:32;31.70;28.80
18309;DHT22;9280;50.276;18.650;2022-09-09T13:49:21;31.20;29.70
18309;DHT22;9280;50.276;18.650;2022-09-09T13:52:10;31.00;30.00
18309;DHT22;9280;50.276;18.650;2022-09-09T13:54:58;31.20;29.70
18309;DHT22;9280;50.276;18.650;2022-09-09T13:57:51;31.20;29.70
18309;DHT22;9280;50.276;18.650;2022-09-09T14:00:38;31.20;30.20
18309;DHT22;9280;50.276;18.650;2022-09-09T14:03:24;30.50;30.00
18309;DHT22;9280;50.276;18.650;2022-09-09T14:06:10;30.40;31.30
18309;DHT22;9280;50.276;18.650;2022-09-09T14:08:57;31.00;31.30
18309;DHT22;9280;50.276;18.650;2022-09-09T14:11:45;32.70;29.20
18309;DHT22;9280;50.276;18.650;2022-09-09T14:14:31;33.70;27.80
18309;DHT22;9280;50.276;18.650;2022-09-09T14:17:17;34.50;26.70
18309;DHT22;9280;50.276;18.650;2022-09-09T14:20:04;34.90;26.40
18309;DHT22;9280;50.276;18.650;2022-09-09T14:22:52;36.10;25.40
18309;DHT22;9280;50.276;18.650;2022-09-09T14:25:43;37.90;24.20
18309;DHT22;9280;50.276;18.650;2022-09-09T14:28:30;38.50;22.60
18309;DHT22;9280;50.276;18.650;2022-09-09T14:31:16;38.10;22.40
18309;DHT22;9280;50.276;18.650;2022-09-09T14:34:03;37.30;22.40
18309;DHT22;9280;50.276;18.650;2022-09-09T14:36:50;36.90;23.60
18309;DHT22;9280;50.276;18.650;2022-09-09T14:39:37;37.90;23.30
18309;DHT22;9280;50.276;18.650;2022-09-09T14:42:23;38.00;23.00
18309;DHT22;9280;50.276;18.650;2022-09-09T14:45:11;39.00;22.40
18309;DHT22;9280;50.276;18.650;2022-09-09T14:47:58;39.30;22.30
18309;DHT22;9280;50.276;18.650;2022-09-09T14:50:44;37.70;23.20
18309;DHT22;9280;50.276;18.650;2022-09-09T14:53:30;35.40;24.40
18309;DHT22;9280;50.276;18.650;2022-09-09T14:56:18;33.50;25.80
18309;DHT22;9280;50.276;18.650;2022-09-09T14:59:04;31.70;27.50
18309;DHT22;9280;50.276;18.650;2022-09-09T15:01:52;30.40;29.00
18309;DHT22;9280;50.276;18.650;2022-09-09T15:04:38;29.20;31.60
18309;DHT22;9280;50.276;18.650;2022-09-09T15:07:24;28.40;33.00
18309;DHT22;9280;50.276;18.650;2022-09-09T15:10:12;27.50;34.10
18309;DHT22;9280;50.276;18.650;2022-09-09T15:12:58;26.90;35.50
18309;DHT22;9280;50.276;18.650;2022-09-09T15:15:44;26.30;36.30
18309;DHT22;9280;50.276;18.650;2022-09-09T15:18:31;25.80;38.30
18309;DHT22;9280;50.276;18.650;2022-09-09T15:21:19;25.70;40.10
18309;DHT22;9280;50.276;18.650;2022-09-09T15:24:06;25.70;41.00
18309;DHT22;9280;50.276;18.650;2022-09-09T15:26:52;25.60;40.60
18309;DHT22;9280;50.276;18.650;2022-09-09T15:29:39;25.60;40.80
18309;DHT22;9280;50.276;18.650;2022-09-09T15:32:27;25.40;43.80
18309;DHT22;9280;50.276;18.650;2022-09-09T15:35:15;25.30;43.60
18309;DHT22;9280;50.276;18.650;2022-09-09T15:38:02;25.20;46.00
18309;DHT22;9280;50.276;18.650;2022-09-09T15:40:53;25.00;45.00
18309;DHT22;9280;50.276;18.650;2022-09-09T15:43:43;25.50;45.30
18309;DHT22;9280;50.276;18.650;2022-09-09T15:46:32;25.30;44.40
18309;DHT22;9280;50.276;18.650;2022-09-09T15:49:21;24.90;46.20
18309;DHT22;9280;50.276;18.650;2022-09-09T15:52:11;24.50;49.00
18309;DHT22;9280;50.276;18.650;2022-09-09T15:54:57;23.90;49.20
18309;DHT22;9280;50.276;18.650;2022-09-09T15:57:45;23.60;49.40
18309;DHT22;9280;50.276;18.650;2022-09-09T16:00:32;23.20;50.20
18309;DHT22;9280;50.276;18.650;2022-09-09T16:03:18;22.90;51.80
18309;DHT22;9280;50.276;18.650;2022-09-09T16:06:05;22.70;52.50
18309;DHT22;9280;50.276;18.650;2022-09-09T16:08:54;22.50;51.50
18309;DHT22;9280;50.276;18.650;2022-09-09T16:11:41;22.30;52.40
18309;DHT22;9280;50.276;18.650;2022-09-09T16:14:27;22.20;52.10
18309;DHT22;9280;50.276;18.650;2022-09-09T16:17:18;22.10;53.00
18309;DHT22;9280;50.276;18.650;2022-09-09T16:20:06;22.00;53.00
18309;DHT22;9280;50.276;18.650;2022-09-09T16:22:53;21.90;53.20
18309;DHT22;9280;50.276;18.650;2022-09-09T16:25:42;21.80;55.30
18309;DHT22;9280;50.276;18.650;2022-09-09T16:28:29;21.70;58.70
18309;DHT22;9280;50.276;18.650;2022-09-09T16:31:17;21.50;60.20
18309;DHT22;9280;50.276;18.650;2022-09-09T16:34:03;21.30;58.80
18309;DHT22;9280;50.276;18.650;2022-09-09T16:36:49;21.10;60.20
18309;DHT22;9280;50.276;18.650;2022-09-09T16:39:35;21.00;62.80
18309;DHT22;9280;50.276;18.650;2022-09-09T16:42:22;20.80;64.90
18309;DHT22;9280;50.276;18.650;2022-09-09T16:45:09;20.70;65.90
18309;DHT22;9280;50.276;18.650;2022-09-09T16:47:55;20.50;68.00
18309;DHT22;9280;50.276;18.650;2022-09-09T16:50:41;20.30;71.30
18309;DHT22;9280;50.276;18.650;2022-09-09T16:53:27;20.20;73.00
18309;DHT22;9280;50.276;18.650;2022-09-09T16:56:15;20.10;76.20
18309;DHT22;9280;50.276;18.650;2022-09-09T16:59:04;20.00;79.50
18309;DHT22;9280;50.276;18.650;2022-09-09T17:01:51;19.90;83.90
18309;DHT22;9280;50.276;18.650;2022-09-09T17:04:38;19.80;87.40
18309;DHT22;9280;50.276;18.650;2022-09-09T17:07:25;19.70;91.00
18309;DHT22;9280;50.276;18.650;2022-09-09T17:10:11;19.60;92.30
18309;DHT22;9280;50.276;18.650;2022-09-09T17:12:58;19.50;93.90
18309;DHT22;9280;50.276;18.650;2022-09-09T17:15:46;19.40;95.10
18309;DHT22;9280;50.276;18.650;2022-09-09T17:18:32;19.30;96.30
18309;DHT22;9280;50.276;18.650;2022-09-09T17:21:21;19.30;96.90
18309;DHT22;9280;50.276;18.650;2022-09-09T17:24:07;19.20;97.80
18309;DHT22;9280;50.276;18.650;2022-09-09T17:26:53;19.10;97.80
18309;DHT22;9280;50.276;18.650;2022-09-09T17:29:39;19.10;98.20
18309;DHT22;9280;50.276;18.650;2022-09-09T17:32:26;19.00;98.40
18309;DHT22;9280;50.276;18.650;2022-09-09T17:35:13;19.00;98.50
18309;DHT22;9280;50.276;18.650;2022-09-09T17:37:59;19.00;99.00
18309;DHT22;9280;50.276;18.650;2022-09-09T17:40:45;18.90;99.40
18309;DHT22;9280;50.276;18.650;2022-09-09T17:43:32;18.80;99.90
18309;DHT22;9280;50.276;18.650;2022-09-09T17:46:21;18.80;99.90
18309;DHT22;9280;50.276;18.650;2022-09-09T17:49:11;18.80;99.90
18309;DHT22;9280;50.276;18.650;2022-09-09T17:51:57;18.80;99.90
18309;DHT22;9280;50.276;18.650;2022-09-09T17:54:43;18.80;99.90
18309;DHT22;9280;50.276;18.650;2022-09-09T17:57:29;18.80;99.90
18309;DHT22;9280;50.276;18.650;2022-09-09T18:00:16;18.80;99.90
18309;DHT22;9280;50.276;18.650;2022-09-09T18:03:03;18.70;99.90
18309;DHT22;9280;50.276;18.650;2022-09-09T18:05:50;18.70;99.90
18309;DHT22;9280;50.276;18.650;2022-09-09T18:08:36;18.80;99.90
18309;DHT22;9280;50.276;18.650;2022-09-09T18:11:24;18.70;99.90
18309;DHT22;9280;50.276;18.650;2022-09-09T18:14:12;18.70;99.90
18309;DHT22;9280;50.276;18.650;2022-09-09T18:17:01;18.70;99.90
18309;DHT22;9280;50.276;18.650;2022-09-09T18:19:48;18.70;99.90
18309;DHT22;9280;50.276;18.650;2022-09-09T18:22:36;18.70;99.90
18309;DHT22;9280;50.276;18.650;2022-09-09T18:25:22;18.60;99.90
18309;DHT22;9280;50.276;18.650;2022-09-09T18:28:08;18.60;99.90
18309;DHT22;9280;50.276;18.650;2022-09-09T18:30:55;18.60;99.90
18309;DHT22;9280;50.276;18.650;2022-09-09T18:33:43;18.50;99.90
18309;DHT22;9280;50.276;18.650;2022-09-09T18:36:31;18.50;99.90
18309;DHT22;9280;50.276;18.650;2022-09-09T18:39:20;18.50;99.90
18309;DHT22;9280;50.276;18.650;2022-09-09T18:42:08;18.40;99.90
18309;DHT22;9280;50.276;18.650;2022-09-09T18:44:56;18.40;99.90
18309;DHT22;9280;50.276;18.650;2022-09-09T18:47:42;18.40;99.90
18309;DHT22;9280;50.276;18.650;2022-09-09T18:50:28;18.30;99.90
18309;DHT22;9280;50.276;18.650;2022-09-09T18:53:14;18.30;99.90
18309;DHT22;9280;50.276;18.650;2022-09-09T18:56:03;18.30;99.90
18309;DHT22;9280;50.276;18.650;2022-09-09T18:58:50;18.30;99.90
18309;DHT22;9280;50.276;18.650;2022-09-09T19:01:36;18.20;99.90
18309;DHT22;9280;50.276;18.650;2022-09-09T19:04:23;18.20;99.90
18309;DHT22;9280;50.276;18.650;2022-09-09T19:07:10;18.20;99.90
18309;DHT22;9280;50.276;18.650;2022-09-09T19:09:56;18.20;99.90
18309;DHT22;9280;50.276;18.650;2022-09-09T19:12:43;18.10;99.90
18309;DHT22;9280;50.276;18.650;2022-09-09T19:15:29;18.10;99.90
18309;DHT22;9280;50.276;18.650;2022-09-09T19:18:16;18.10;99.90
18309;DHT22;9280;50.276;18.650;2022-09-09T19:21:09;18.00;99.90
18309;DHT22;9280;50.276;18.650;2022-09-09T19:23:57;18.00;99.90
18309;DHT22;9280;50.276;18.650;2022-09-09T19:26:45;17.90;99.90
18309;DHT22;9280;50.276;18.650;2022-09-09T19:29:35;18.00;99.90
18309;DHT22;9280;50.276;18.650;2022-09-09T19:32:22;17.80;99.90
18309;DHT22;9280;50.276;18.650;2022-09-09T19:35:09;17.70;99.90
18309;DHT22;9280;50.276;18.650;2022-09-09T19:37:56;17.70;99.90
18309;DHT22;9280;50.276;18.650;2022-09-09T19:40:42;17.70;99.90
18309;DHT22;9280;50.276;18.650;2022-09-09T19:43:28;17.60;99.90
18309;DHT22;9280;50.276;18.650;2022-09-09T19:46:16;17.60;99.90
18309;DHT22;9280;50.276;18.650;2022-09-09T19:49:03;17.50;99.90
18309;DHT22;9280;50.276;18.650;2022-09-09T19:51:49;17.50;99.90
18309;DHT22;9280;50.276;18.650;2022-09-09T19:54:36;17.50;99.90
18309;DHT22;9280;50.276;18.650;2022-09-09T19:57:21;17.50;99.90
18309;DHT22;9280;50.276;18.650;2022-09-09T20:00:09;17.40;99.90
18309;DHT22;9280;50.276;18.650;2022-09-09T20:02:59;17.40;99.90
18309;DHT22;9280;50.276;18.650;2022-09-09T20:05:46;17.30;99.90
18309;DHT22;9280;50.276;18.650;2022-09-09T20:08:35;17.30;99.90
18309;DHT22;9280;50.276;18.650;2022-09-09T20:11:23;17.30;99.90
18309;DHT22;9280;50.276;18.650;2022-09-09T20:14:09;17.20;99.90
18309;DHT22;9280;50.276;18.650;2022-09-09T20:16:55;17.10;99.90
18309;DHT22;9280;50.276;18.650;2022-09-09T20:19:43;17.10;99.90
18309;DHT22;9280;50.276;18.650;2022-09-09T20:22:29;17.00;99.90
18309;DHT22;9280;50.276;18.650;2022-09-09T20:25:15;17.00;99.90
18309;DHT22;9280;50.276;18.650;2022-09-09T20:28:02;16.90;99.90
18309;DHT22;9280;50.276;18.650;2022-09-09T20:30:48;16.90;99.90
18309;DHT22;9280;50.276;18.650;2022-09-09T20:33:35;16.90;99.90
18309;DHT22;9280;50.276;18.650;2022-09-09T20:36:24;16.90;99.90
18309;DHT22;9280;50.276;18.650;2022-09-09T20:39:12;16.80;99.90
18309;DHT22;9280;50.276;18.650;2022-09-09T20:41:59;16.90;99.90
18309;DHT22;9280;50.276;18.650;2022-09-09T20:44:46;16.90;99.90
18309;DHT22;9280;50.276;18.650;2022-09-09T20:47:32;16.90;99.90
18309;DHT22;9280;50.276;18.650;2022-09-09T20:50:18;16.80;99.90
18309;DHT22;9280;50.276;18.650;2022-09-09T20:53:06;16.80;99.90
18309;DHT22;9280;50.276;18.650;2022-09-09T20:55:52;16.80;99.90
18309;DHT22;9280;50.276;18.650;2022-09-09T20:58:43;16.70;99.90
18309;DHT22;9280;50.276;18.650;2022-09-09T21:01:29;16.70;99.90
18309;DHT22;9280;50.276;18.650;2022-09-09T21:04:17;16.70;99.90
18309;DHT22;9280;50.276;18.650;2022-09-09T21:07:03;16.60;99.90
18309;DHT22;9280;50.276;18.650;2022-09-09T21:09:52;16.60;99.90
18309;DHT22;9280;50.276;18.650;2022-09-09T21:12:40;16.60;99.90
18309;DHT22;9280;50.276;18.650;2022-09-09T21:15:26;16.50;99.90
18309;DHT22;9280;50.276;18.650;2022-09-09T21:18:13;16.50;99.90
18309;DHT22;9280;50.276;18.650;2022-09-09T21:20:59;16.50;99.90
18309;DHT22;9280;50.276;18.650;2022-09-09T21:23:45;16.50;99.90
18309;DHT22;9280;50.276;18.650;2022-09-09T21:26:32;16.50;99.90
18309;DHT22;9280;50.276;18.650;2022-09-09T21:29:18;16.50;99.90
18309;DHT22;9280;50.276;18.650;2022-09-09T21:32:04;16.50;99.90
18309;DHT22;9280;50.276;18.650;2022-09-09T21:34:50;16.50;99.90
18309;DHT22;9280;50.276;18.650;2022-09-09T21:37:36;16.60;99.90
18309;DHT22;9280;50.276;18.650;2022-09-09T21:40:22;16.60;99.90
18309;DHT22;9280;50.276;18.650;2022-09-09T21:43:12;16.60;99.90
18309;DHT22;9280;50.276;18.650;2022-09-09T21:45:58;16.70;99.90
18309;DHT22;9280;50.276;18.650;2022-09-09T21:48:48;16.70;99.90
18309;DHT22;9280;50.276;18.650;2022-09-09T21:51:34;16.70;99.90
18309;DHT22;9280;50.276;18.650;2022-09-09T21:54:20;16.70;99.90
18309;DHT22;9280;50.276;18.650;2022-09-09T21:57:06;16.70;99.90
18309;DHT22;9280;50.276;18.650;2022-09-09T21:59:53;16.70;99.90
18309;DHT22;9280;50.276;18.650;2022-09-09T22:02:39;16.70;99.90
18309;DHT22;9280;50.276;18.650;2022-09-09T22:05:25;16.70;99.90
18309;DHT22;9280;50.276;18.650;2022-09-09T22:08:13;16.80;99.90
18309;DHT22;9280;50.276;18.650;2022-09-09T22:11:05;16.80;99.90
18309;DHT22;9280;50.276;18.650;2022-09-09T22:13:52;16.80;99.90
18309;DHT22;9280;50.276;18.650;2022-09-09T22:16:39;16.80;99.90
18309;DHT22;9280;50.276;18.650;2022-09-09T22:19:25;16.80;99.90
18309;DHT22;9280;50.276;18.650;2022-09-09T22:22:12;16.80;99.90
18309;DHT22;9280;50.276;18.650;2022-09-09T22:24:57;16.80;99.90
18309;DHT22;9280;50.276;18.650;2022-09-09T22:27:43;16.80;99.90
18309;DHT22;9280;50.276;18.650;2022-09-09T22:30:29;16.80;99.90
18309;DHT22;9280;50.276;18.650;2022-09-09T22:33:17;16.80;99.90
18309;DHT22;9280;50.276;18.650;2022-09-09T22:36:04;16.80;99.90
18309;DHT22;9280;50.276;18.650;2022-09-09T22:38:51;16.80;99.90
18309;DHT22;9280;50.276;18.650;2022-09-09T22:41:37;16.90;99.90
18309;DHT22;9280;50.276;18.650;2022-09-09T22:44:24;16.80;99.90
18309;DHT22;9280;50.276;18.650;2022-09-09T22:47:11;16.80;99.90
18309;DHT22;9280;50.276;18.650;2022-09-09T22:49:58;16.50;99.90
18309;DHT22;9280;50.276;18.650;2022-09-09T22:52:45;16.30;99.90
18309;DHT22;9280;50.276;18.650;2022-09-09T22:55:31;16.30;99.90
18309;DHT22;9280;50.276;18.650;2022-09-09T22:58:17;16.40;99.90
18309;DHT22;9280;50.276;18.650;2022-09-09T23:01:10;16.50;99.90
18309;DHT22;9280;50.276;18.650;2022-09-09T23:03:58;16.50;99.90
18309;DHT22;9280;50.276;18.650;2022-09-09T23:06:47;16.60;99.90
18309;DHT22;9280;50.276;18.650;2022-09-09T23:09:33;16.60;99.90
18309;DHT22;9280;50.276;18.650;2022-09-09T23:12:19;16.60;99.90
18309;DHT22;9280;50.276;18.650;2022-09-09T23:15:07;16.60;99.90
18309;DHT22;9280;50.276;18.650;2022-09-09T23:17:54;16.60;99.90
18309;DHT22;9280;50.276;18.650;2022-09-09T23:20:40;16.50;99.90
18309;DHT22;9280;50.276;18.650;2022-09-09T23:23:28;16.40;99.90
18309;DHT22;9280;50.276;18.650;2022-09-09T23:26:14;16.30;99.90
18309;DHT22;9280;50.276;18.650;2022-09-09T23:29:04;16.20;99.90
18309;DHT22;9280;50.276;18.650;2022-09-09T23:31:50;16.20;99.90
18309;DHT22;9280;50.276;18.650;2022-09-09T23:34:36;16.10;99.90
18309;DHT22;9280;50.276;18.650;2022-09-09T23:37:24;16.00;99.90
18309;DHT22;9280;50.276;18.650;2022-09-09T23:40:11;15.90;99.90
18309;DHT22;9280;50.276;18.650;2022-09-09T23:42:57;15.90;99.90
18309;DHT22;9280;50.276;18.650;2022-09-09T23:45:44;15.90;99.90
18309;DHT22;9280;50.276;18.650;2022-09-09T23:48:30;15.90;99.90
18309;DHT22;9280;50.276;18.650;2022-09-09T23:51:17;15.80;99.90
18309;DHT22;9280;50.276;18.650;2022-09-09T23:54:04;15.60;99.90
18309;DHT22;9280;50.276;18.650;2022-09-09T23:56:51;15.60;99.90
18309;DHT22;9280;50.276;18.650;2022-09-09T23:59:38;15.50;99.90
